createdAt,value
2022-11-16T00:01:57.056Z,12.74
2022-11-16T00:04:24.957Z,12.87
2022-11-16T00:06:52.868Z,12.91
2022-11-16T00:09:23.361Z,12.98
2022-11-16T00:11:52.654Z,13.01
2022-11-16T00:14:21.067Z,12.94
2022-11-16T00:16:49.223Z,12.90
2022-11-16T00:19:19.027Z,13.17
2022-11-16T00:21:47.122Z,12.85
2022-11-16T00:24:16.693Z,12.38
2022-11-16T00:26:44.780Z,12.61
2022-11-16T00:29:16.279Z,12.64
2022-11-16T00:31:45.072Z,12.64
2022-11-16T00:34:13.453Z,12.28
2022-11-16T00:36:42.608Z,12.39
2022-11-16T00:39:12.213Z,12.49
2022-11-16T00:41:39.956Z,12.49
2022-11-16T00:44:08.276Z,12.93
2022-11-16T00:46:35.999Z,13.19
2022-11-16T00:49:05.368Z,13.22
2022-11-16T00:51:33.553Z,13.15
2022-11-16T00:54:04.149Z,12.63
2022-11-16T00:56:34.226Z,12.50
2022-11-16T00:59:02.498Z,12.41
2022-11-16T01:01:30.375Z,12.46
2022-11-16T01:03:58.311Z,12.34
2022-11-16T01:06:26.135Z,12.17
2022-11-16T01:08:53.937Z,11.97
2022-11-16T01:11:43.308Z,11.94
2022-11-16T01:14:11.774Z,11.94
2022-11-16T01:16:39.457Z,11.82
2022-11-16T01:19:07.374Z,11.95
2022-11-16T01:21:35.181Z,11.85
2022-11-16T01:24:03.100Z,11.91
2022-11-16T01:26:32.167Z,11.58
2022-11-16T01:29:00.308Z,11.76
2022-11-16T01:31:31.915Z,11.66
2022-11-16T01:34:02.134Z,11.81
2022-11-16T01:36:30.935Z,11.82
2022-11-16T01:39:00.869Z,11.54
2022-11-16T01:41:34.478Z,11.35
2022-11-16T01:44:07.728Z,11.45
2022-11-16T01:46:44.629Z,11.73
2022-11-16T01:49:18.816Z,11.91
2022-11-16T01:51:50.795Z,11.84
2022-11-16T01:54:19.891Z,11.99
2022-11-16T01:57:01.618Z,11.93
2022-11-16T01:59:37.466Z,11.77
2022-11-16T02:02:07.049Z,11.81
2022-11-16T02:04:37.681Z,11.78
2022-11-16T02:07:13.913Z,11.86
2022-11-16T02:09:58.819Z,11.62
2022-11-16T02:13:11.363Z,11.89
2022-11-16T02:15:48.962Z,12.18
2022-11-16T02:18:34.241Z,12.40
2022-11-16T02:21:10.413Z,12.01
2022-11-16T02:24:34.499Z,11.88
2022-11-16T02:27:49.772Z,11.65
2022-11-16T02:30:19.913Z,10.69
2022-11-16T02:32:53.647Z,11.32
2022-11-16T02:35:27.063Z,11.67
2022-11-16T02:38:01.212Z,11.00
2022-11-16T02:40:32.745Z,10.98
2022-11-16T02:43:05.965Z,11.92
2022-11-16T02:45:38.180Z,12.17
2022-11-16T02:48:10.729Z,12.25
2022-11-16T02:50:40.103Z,12.54
2022-11-16T02:53:07.878Z,12.73
2022-11-16T02:55:37.349Z,12.83
2022-11-16T02:58:07.319Z,12.96
2022-11-16T03:00:44.850Z,13.20
2022-11-16T03:03:25.006Z,13.29
2022-11-16T03:05:57.114Z,13.15
2022-11-16T03:08:30.498Z,12.88
2022-11-16T03:11:22.767Z,12.67
2022-11-16T03:13:52.883Z,12.51
2022-11-16T03:16:25.980Z,12.51
2022-11-16T03:18:56.632Z,12.73
2022-11-16T03:21:31.460Z,12.75
2022-11-16T03:23:58.990Z,12.39
2022-11-16T03:26:34.385Z,12.31
2022-11-16T03:29:06.780Z,12.11
2022-11-16T03:31:42.709Z,12.22
2022-11-16T03:34:20.186Z,12.20
2022-11-16T03:36:51.436Z,12.34
2022-11-16T03:39:24.510Z,11.96
2022-11-16T03:41:52.325Z,12.08
2022-11-16T03:44:21.514Z,11.30
2022-11-16T03:46:50.677Z,11.75
2022-11-16T03:49:21.856Z,11.59
2022-11-16T03:51:50.481Z,11.41
2022-11-16T03:54:18.338Z,11.60
2022-11-16T03:56:45.995Z,11.38
2022-11-16T03:59:13.707Z,10.60
2022-11-16T04:01:44.755Z,10.60
2022-11-16T04:04:29.230Z,10.14
2022-11-16T04:07:15.765Z,10.09
2022-11-16T04:10:01.119Z,10.52
2022-11-16T04:12:49.409Z,10.54
2022-11-16T04:15:36.856Z,10.92
2022-11-16T04:18:22.600Z,11.17
2022-11-16T04:21:09.021Z,11.28
2022-11-16T04:23:55.226Z,11.82
2022-11-16T04:26:44.030Z,11.18
2022-11-16T04:29:12.108Z,11.10
2022-11-16T04:32:03.222Z,11.40
2022-11-16T04:34:48.638Z,11.93
2022-11-16T04:37:36.702Z,12.28
2022-11-16T04:40:06.207Z,12.52
2022-11-16T04:42:32.992Z,11.62
2022-11-16T04:45:18.367Z,12.00
2022-11-16T04:47:52.606Z,11.84
2022-11-16T04:50:22.558Z,11.99
2022-11-16T04:52:52.652Z,11.89
2022-11-16T04:55:21.145Z,11.87
2022-11-16T04:57:50.363Z,11.16
2022-11-16T05:00:18.751Z,11.96
2022-11-16T05:02:46.742Z,12.54
2022-11-16T05:05:15.196Z,12.81
2022-11-16T05:07:45.011Z,12.51
2022-11-16T05:10:20.837Z,12.67
2022-11-16T05:12:50.200Z,12.19
2022-11-16T05:15:19.676Z,12.61
2022-11-16T05:17:48.482Z,12.50
2022-11-16T05:20:37.613Z,12.73
2022-11-16T05:23:26.256Z,12.90
2022-11-16T05:25:56.287Z,12.84
2022-11-16T05:28:24.097Z,13.04
2022-11-16T05:30:52.195Z,12.22
2022-11-16T05:33:23.415Z,12.52
2022-11-16T05:35:51.804Z,12.91
2022-11-16T05:38:21.067Z,13.06
2022-11-16T05:40:52.759Z,12.47
2022-11-16T05:43:22.794Z,12.47
2022-11-16T05:46:01.369Z,12.06
2022-11-16T05:48:29.054Z,12.03
2022-11-16T05:50:59.425Z,12.24
2022-11-16T05:53:28.426Z,11.91
2022-11-16T05:55:56.411Z,11.78
2022-11-16T05:58:26.652Z,11.81
2022-11-16T06:00:54.707Z,12.05
2022-11-16T06:03:23.200Z,12.40
2022-11-16T06:05:53.183Z,12.09
2022-11-16T06:08:21.203Z,11.81
2022-11-16T06:10:52.114Z,11.94
2022-11-16T06:13:19.863Z,11.90
2022-11-16T06:15:54.846Z,12.15
2022-11-16T06:18:23.429Z,12.51
2022-11-16T06:20:51.613Z,12.39
2022-11-16T06:23:22.070Z,12.38
2022-11-16T06:25:54.650Z,12.19
2022-11-16T06:28:24.972Z,11.78
2022-11-16T06:30:54.337Z,11.59
2022-11-16T06:33:25.673Z,11.24
2022-11-16T06:35:58.316Z,10.76
2022-11-16T06:38:26.308Z,10.88
2022-11-16T06:40:57.640Z,11.56
2022-11-16T06:43:28.091Z,11.04
2022-11-16T06:45:58.877Z,11.83
2022-11-16T06:48:26.975Z,11.95
2022-11-16T06:50:55.407Z,11.02
2022-11-16T06:53:28.825Z,11.76
2022-11-16T06:56:02.589Z,12.46
2022-11-16T06:58:31.836Z,12.79
2022-11-16T07:01:08.028Z,13.05
2022-11-16T07:03:37.581Z,12.83
2022-11-16T07:06:08.192Z,12.97
2022-11-16T07:08:36.826Z,13.04
2022-11-16T07:11:06.329Z,12.98
2022-11-16T07:13:35.251Z,13.20
2022-11-16T07:16:04.738Z,13.23
2022-11-16T07:18:35.973Z,13.19
2022-11-16T07:21:07.563Z,13.16
2022-11-16T07:23:36.019Z,12.40
2022-11-16T07:26:05.588Z,12.24
2022-11-16T07:28:46.575Z,12.24
2022-11-16T07:31:17.766Z,11.69
2022-11-16T07:33:46.981Z,12.02
2022-11-16T07:36:33.198Z,11.65
2022-11-16T07:39:01.250Z,11.59
2022-11-16T07:41:29.708Z,11.99
2022-11-16T07:44:20.085Z,11.91
2022-11-16T07:47:01.747Z,12.10
2022-11-16T07:49:32.795Z,12.47
2022-11-16T07:52:06.178Z,12.47
2022-11-16T07:54:45.035Z,11.60
2022-11-16T07:57:13.791Z,11.30
2022-11-16T07:59:42.807Z,10.79
2022-11-16T08:02:10.753Z,11.08
2022-11-16T08:04:41.891Z,10.81
2022-11-16T08:07:10.304Z,10.77
2022-11-16T08:09:45.789Z,10.67
2022-11-16T08:12:15.694Z,10.67
2022-11-16T08:14:43.999Z,10.61
2022-11-16T08:17:13.443Z,11.00
2022-11-16T08:19:43.304Z,10.72
2022-11-16T08:22:14.304Z,10.88
2022-11-16T08:24:43.023Z,10.80
2022-11-16T08:27:10.786Z,10.88
2022-11-16T08:29:39.100Z,10.96
2022-11-16T08:32:09.752Z,10.87
2022-11-16T08:34:37.957Z,10.88
2022-11-16T08:37:08.162Z,11.49
2022-11-16T08:39:45.640Z,12.51
2022-11-16T08:42:13.566Z,11.98
2022-11-16T08:44:45.457Z,11.72
2022-11-16T08:47:15.680Z,12.16
2022-11-16T08:49:49.840Z,11.61
2022-11-16T08:52:20.665Z,12.30
2022-11-16T08:54:50.604Z,12.74
2022-11-16T08:57:18.803Z,13.44
2022-11-16T08:59:50.024Z,13.20
2022-11-16T09:02:25.193Z,12.45
2022-11-16T09:04:53.288Z,11.97
2022-11-16T09:07:22.790Z,12.00
2022-11-16T09:09:50.613Z,11.86
2022-11-16T09:12:18.721Z,12.12
2022-11-16T09:14:46.585Z,11.80
2022-11-16T09:17:18.821Z,12.53
2022-11-16T09:19:49.610Z,15.05
2022-11-16T09:22:17.342Z,14.79
2022-11-16T09:24:46.409Z,16.49
2022-11-16T09:27:14.929Z,16.14
2022-11-16T09:29:42.616Z,15.63
2022-11-16T09:32:10.495Z,16.03
2022-11-16T09:34:38.255Z,15.91
2022-11-16T09:37:06.044Z,15.62
2022-11-16T09:39:34.408Z,15.79
2022-11-16T09:42:22.544Z,17.23
2022-11-16T09:45:00.177Z,16.53
2022-11-16T09:47:41.174Z,17.21
2022-11-16T09:50:33.120Z,17.35
2022-11-16T09:53:11.266Z,16.43
2022-11-16T09:55:47.883Z,15.32
2022-11-16T09:58:21.133Z,15.71
2022-11-16T10:00:55.673Z,14.05
2022-11-16T10:03:26.331Z,13.60
2022-11-16T10:06:02.662Z,14.08
2022-11-16T10:08:43.840Z,13.69
2022-11-16T10:11:39.813Z,13.12
2022-11-16T10:14:35.580Z,13.00
2022-11-16T10:17:10.914Z,13.98
2022-11-16T10:19:46.624Z,14.02
2022-11-16T10:22:31.906Z,13.38
2022-11-16T10:25:01.191Z,13.75
2022-11-16T10:27:42.805Z,13.21
2022-11-16T10:30:15.634Z,12.88
2022-11-16T10:32:51.772Z,12.90
2022-11-16T10:35:26.642Z,13.19
2022-11-16T10:37:54.471Z,14.57
2022-11-16T10:40:25.956Z,16.25
2022-11-16T10:43:03.339Z,15.80
2022-11-16T10:45:41.195Z,15.02
2022-11-16T10:48:20.572Z,15.58
2022-11-16T10:50:49.920Z,15.31
2022-11-16T10:53:28.559Z,16.58
2022-11-16T10:56:14.283Z,15.91
2022-11-16T10:58:52.289Z,13.48
2022-11-16T11:01:36.760Z,13.78
2022-11-16T11:04:23.492Z,13.81
2022-11-16T11:06:53.717Z,14.69
2022-11-16T11:09:26.068Z,15.84
2022-11-16T11:12:20.263Z,15.16
2022-11-16T11:15:03.461Z,14.78
2022-11-16T11:17:34.245Z,13.55
2022-11-16T11:20:05.502Z,13.58
2022-11-16T11:22:35.871Z,13.29
2022-11-16T11:25:04.419Z,13.69
2022-11-16T11:27:35.890Z,13.86
2022-11-16T11:30:04.309Z,15.22
2022-11-16T11:32:41.475Z,14.85
2022-11-16T11:35:24.552Z,15.26
2022-11-16T11:37:55.393Z,14.32
2022-11-16T11:40:25.546Z,14.85
2022-11-16T11:42:56.548Z,16.48
2022-11-16T11:45:30.158Z,17.55
2022-11-16T11:48:02.795Z,18.57
2022-11-16T11:50:43.309Z,19.20
2022-11-16T11:53:19.822Z,19.55
2022-11-16T11:55:47.819Z,16.52
2022-11-16T11:58:17.994Z,16.58
2022-11-16T12:01:01.252Z,15.77
2022-11-16T12:04:22.560Z,16.65
2022-11-16T12:06:59.541Z,17.66
2022-11-16T12:09:40.787Z,18.09
2022-11-16T12:12:21.926Z,17.31
2022-11-16T12:15:03.361Z,19.27
2022-11-16T12:17:42.108Z,18.84
2022-11-16T12:20:30.888Z,18.16
2022-11-16T12:23:18.828Z,18.52
2022-11-16T12:25:54.122Z,17.90
2022-11-16T12:28:40.868Z,18.48
2022-11-16T12:31:38.812Z,18.88
2022-11-16T12:34:15.603Z,19.36
2022-11-16T12:36:51.708Z,18.63
2022-11-16T12:39:25.219Z,16.79
2022-11-16T12:42:18.033Z,17.43
2022-11-16T12:45:12.427Z,16.47
2022-11-16T12:47:54.140Z,15.14
2022-11-16T12:50:43.233Z,15.37
2022-11-16T12:53:29.252Z,16.14
2022-11-16T12:56:04.453Z,15.76
2022-11-16T12:58:50.384Z,15.27
2022-11-16T13:01:23.682Z,15.22
2022-11-16T13:03:55.971Z,16.01
2022-11-16T13:06:30.574Z,15.55
2022-11-16T13:09:04.721Z,15.74
2022-11-16T13:11:36.657Z,17.13
2022-11-16T13:14:09.144Z,17.72
2022-11-16T13:16:37.048Z,16.94
2022-11-16T13:19:07.709Z,15.76
2022-11-16T13:21:44.547Z,17.27
2022-11-16T13:24:33.455Z,16.71
2022-11-16T13:27:17.760Z,14.69
2022-11-16T13:29:52.265Z,15.22
2022-11-16T13:32:26.732Z,15.66
2022-11-16T13:34:55.300Z,16.24
2022-11-16T13:37:42.269Z,16.92
2022-11-16T13:40:26.287Z,16.73
2022-11-16T13:43:17.779Z,16.01
2022-11-16T13:45:53.889Z,15.04
2022-11-16T13:48:26.582Z,15.00
2022-11-16T13:50:59.402Z,15.11
2022-11-16T13:56:28.735Z,15.24
2022-11-16T13:58:59.419Z,14.88
2022-11-16T14:01:57.549Z,14.51
2022-11-16T14:04:40.819Z,14.53
2022-11-16T14:07:36.649Z,14.72
2022-11-16T14:10:07.863Z,14.88
2022-11-16T14:12:59.593Z,14.76
2022-11-16T14:15:34.451Z,14.62
2022-11-16T14:18:21.799Z,15.96
2022-11-16T14:20:59.764Z,16.45
2022-11-16T14:24:05.896Z,16.81
2022-11-16T14:26:46.820Z,16.06
2022-11-16T14:29:33.048Z,15.75
2022-11-16T14:32:04.140Z,15.37
2022-11-16T14:34:34.387Z,16.40
2022-11-16T14:37:03.226Z,16.16
2022-11-16T14:39:35.219Z,16.65
2022-11-16T14:42:06.942Z,17.17
2022-11-16T14:44:38.512Z,17.73
2022-11-16T14:47:21.851Z,17.69
2022-11-16T14:49:50.220Z,18.07
2022-11-16T14:52:26.943Z,18.01
2022-11-16T14:54:58.081Z,16.64
2022-11-16T14:57:25.840Z,16.89
2022-11-16T15:00:09.579Z,17.45
2022-11-16T15:02:40.247Z,17.51
2022-11-16T15:05:08.748Z,17.77
2022-11-16T15:07:36.881Z,17.90
2022-11-16T15:10:05.203Z,17.92
2022-11-16T15:12:45.811Z,17.92
2022-11-16T15:15:16.872Z,16.89
2022-11-16T15:17:47.473Z,15.50
2022-11-16T15:20:21.060Z,15.40
2022-11-16T15:22:51.786Z,15.49
2022-11-16T15:25:28.610Z,15.52
2022-11-16T15:27:57.927Z,15.01
2022-11-16T15:30:27.705Z,15.28
2022-11-16T15:32:57.538Z,15.34
2022-11-16T15:35:29.613Z,15.51
2022-11-16T15:38:05.372Z,15.60
2022-11-16T15:40:34.033Z,15.57
2022-11-16T15:43:04.965Z,15.32
2022-11-16T15:45:33.902Z,14.49
2022-11-16T15:48:04.882Z,14.84
2022-11-16T15:50:32.737Z,14.81
2022-11-16T15:53:00.453Z,14.90
2022-11-16T15:55:33.960Z,15.01
2022-11-16T15:58:04.609Z,15.01
2022-11-16T16:00:35.817Z,14.98
2022-11-16T16:03:07.522Z,14.45
2022-11-16T16:05:39.683Z,14.73
2022-11-16T16:08:24.205Z,14.92
2022-11-16T16:10:59.824Z,14.63
2022-11-16T16:13:30.505Z,14.06
2022-11-16T16:16:23.523Z,14.18
2022-11-16T16:18:54.308Z,14.15
2022-11-16T16:21:22.704Z,13.95
2022-11-16T16:23:52.327Z,13.92
2022-11-16T16:26:20.529Z,13.70
2022-11-16T16:28:48.694Z,13.70
2022-11-16T16:31:20.018Z,13.35
2022-11-16T16:33:47.954Z,13.36
2022-11-16T16:36:17.073Z,13.19
2022-11-16T16:38:44.892Z,13.25
2022-11-16T16:41:24.029Z,13.60
2022-11-16T16:43:52.354Z,13.07
2022-11-16T16:46:20.344Z,12.96
2022-11-16T16:48:48.036Z,13.37
2022-11-16T16:51:17.138Z,13.32
2022-11-16T16:53:44.842Z,13.47
2022-11-16T16:56:16.265Z,13.76
2022-11-16T16:58:43.998Z,14.06
2022-11-16T17:01:11.985Z,14.20
2022-11-16T17:03:40.007Z,13.20
2022-11-16T17:06:07.758Z,13.28
2022-11-16T17:08:38.093Z,13.61
2022-11-16T17:11:06.665Z,13.66
2022-11-16T17:13:34.636Z,13.28
2022-11-16T17:16:05.647Z,13.24
2022-11-16T17:18:33.497Z,13.04
2022-11-16T17:21:04.897Z,13.12
2022-11-16T17:23:33.168Z,13.38
2022-11-16T17:26:05.933Z,13.41
2022-11-16T17:28:33.758Z,13.33
2022-11-16T17:31:03.143Z,12.76
2022-11-16T17:33:34.734Z,12.10
2022-11-16T17:36:03.858Z,12.10
2022-11-16T17:38:31.765Z,12.09
2022-11-16T17:41:06.525Z,12.11
2022-11-16T17:43:35.376Z,12.22
2022-11-16T17:46:07.710Z,12.15
2022-11-16T17:48:36.586Z,12.40
2022-11-16T17:51:05.068Z,12.16
2022-11-16T17:53:34.369Z,12.24
2022-11-16T17:56:02.557Z,12.26
2022-11-16T17:58:32.530Z,12.03
2022-11-16T18:01:00.616Z,12.16
2022-11-16T18:03:28.421Z,11.98
2022-11-16T18:06:02.741Z,12.09
2022-11-16T18:08:30.604Z,12.28
2022-11-16T18:10:58.303Z,12.23
2022-11-16T18:13:26.237Z,12.35
2022-11-16T18:15:55.289Z,12.81
2022-11-16T18:18:23.062Z,12.33
2022-11-16T18:20:50.815Z,12.70
2022-11-16T18:23:18.601Z,12.41
2022-11-16T18:25:46.387Z,12.01
2022-11-16T18:28:14.093Z,12.17
2022-11-16T18:30:42.175Z,12.01
2022-11-16T18:33:11.396Z,12.13
2022-11-16T18:35:39.139Z,11.88
2022-11-16T18:38:12.782Z,11.68
2022-11-16T18:40:41.117Z,11.70
2022-11-16T18:43:13.271Z,11.42
2022-11-16T18:45:41.172Z,11.34
2022-11-16T18:48:08.871Z,11.58
2022-11-16T18:50:38.104Z,11.90
2022-11-16T18:53:05.812Z,11.83
2022-11-16T18:55:33.569Z,11.78
2022-11-16T18:58:01.339Z,12.02
2022-11-16T19:00:29.325Z,12.05
2022-11-16T19:02:59.276Z,12.05
2022-11-16T19:05:27.044Z,12.02
2022-11-16T19:07:56.155Z,11.74
2022-11-16T19:10:23.974Z,11.84
2022-11-16T19:12:51.681Z,11.23
2022-11-16T19:15:19.413Z,11.22
2022-11-16T19:18:06.709Z,11.28
2022-11-16T19:20:35.204Z,11.31
2022-11-16T19:23:04.323Z,11.35
2022-11-16T19:25:32.229Z,11.36
2022-11-16T19:28:00.059Z,11.45
2022-11-16T19:30:27.812Z,11.87
2022-11-16T19:32:57.528Z,12.21
2022-11-16T19:35:25.387Z,12.29
2022-11-16T19:37:53.190Z,12.35
2022-11-16T19:40:24.991Z,12.59
2022-11-16T19:42:54.085Z,12.22
2022-11-16T19:45:21.800Z,12.08
2022-11-16T19:47:49.580Z,11.10
2022-11-16T19:50:17.845Z,11.25
2022-11-16T19:52:48.295Z,11.69
2022-11-16T19:55:16.453Z,11.46
2022-11-16T19:57:48.465Z,11.63
2022-11-16T20:00:17.839Z,12.07
2022-11-16T20:02:45.668Z,12.20
2022-11-16T20:05:13.389Z,11.48
2022-11-16T20:07:41.229Z,12.06
2022-11-16T20:10:09.657Z,12.26
2022-11-16T20:12:37.404Z,12.55
2022-11-16T20:15:07.535Z,12.56
2022-11-16T20:17:35.429Z,12.66
2022-11-16T20:20:03.206Z,12.11
2022-11-16T20:22:30.973Z,12.15
2022-11-16T20:25:01.434Z,11.40
2022-11-16T20:27:29.284Z,11.28
2022-11-16T20:29:57.203Z,11.03
2022-11-16T20:32:26.395Z,10.83
2022-11-16T20:34:54.113Z,10.72
2022-11-16T20:37:21.905Z,10.62
2022-11-16T20:39:52.489Z,10.47
2022-11-16T20:42:20.248Z,10.54
2022-11-16T20:44:49.048Z,10.48
2022-11-16T20:47:16.782Z,10.69
2022-11-16T20:49:45.846Z,10.34
2022-11-16T20:52:13.555Z,10.35
2022-11-16T20:54:41.386Z,10.85
2022-11-16T20:57:09.128Z,11.16
2022-11-16T20:59:36.967Z,11.18
2022-11-16T21:02:04.729Z,11.02
2022-11-16T21:04:32.520Z,11.09
2022-11-16T21:07:01.627Z,11.03
2022-11-16T21:09:49.305Z,11.24
2022-11-16T21:12:38.764Z,10.85
2022-11-16T21:15:10.021Z,10.86
2022-11-16T21:17:38.031Z,10.84
2022-11-16T21:20:26.367Z,10.93
2022-11-16T21:22:55.511Z,10.56
2022-11-16T21:25:23.195Z,10.89
2022-11-16T21:27:50.940Z,10.71
2022-11-16T21:30:18.712Z,10.45
2022-11-16T21:32:46.415Z,10.68
2022-11-16T21:35:14.295Z,10.73
2022-11-16T21:37:41.979Z,10.80
2022-11-16T21:40:12.895Z,10.79
2022-11-16T21:42:40.682Z,10.39
2022-11-16T21:45:09.638Z,10.13
2022-11-16T21:47:37.348Z,9.71
2022-11-16T21:50:30.605Z,9.98
2022-11-16T21:52:53.661Z,10.14
2022-11-16T21:55:22.714Z,10.37
2022-11-16T21:57:50.432Z,10.15
2022-11-16T22:00:19.631Z,10.12
2022-11-16T22:02:47.305Z,10.24
2022-11-16T22:05:32.619Z,10.16
2022-11-16T22:08:05.753Z,10.50
2022-11-16T22:10:35.173Z,10.61
2022-11-16T22:13:03.009Z,10.77
2022-11-16T22:15:31.084Z,10.93
2022-11-16T22:17:58.828Z,10.90
2022-11-16T22:20:26.506Z,10.59
2022-11-16T22:22:54.228Z,10.70
2022-11-16T22:25:22.064Z,10.70
2022-11-16T22:28:20.251Z,10.22
2022-11-16T22:30:38.860Z,10.28
2022-11-16T22:33:06.550Z,10.04
2022-11-16T22:35:34.289Z,10.09
2022-11-16T22:38:04.158Z,10.32
2022-11-16T22:40:31.967Z,10.53
2022-11-16T22:43:01.196Z,10.75
2022-11-16T22:45:28.939Z,10.51
2022-11-16T22:47:56.851Z,10.48
2022-11-16T22:50:24.560Z,9.81
2022-11-16T22:52:55.305Z,9.99
2022-11-16T22:55:23.072Z,10.07
2022-11-16T22:57:50.754Z,10.19
2022-11-16T23:00:20.425Z,10.47
2022-11-16T23:02:48.364Z,10.30
2022-11-16T23:05:16.104Z,10.59
2022-11-16T23:07:43.943Z,10.62
2022-11-16T23:10:11.723Z,10.71
2022-11-16T23:12:56.399Z,10.82
2022-11-16T23:15:42.975Z,10.86
2022-11-16T23:18:10.777Z,10.90
2022-11-16T23:20:55.974Z,10.90
2022-11-16T23:23:41.691Z,10.67
2022-11-16T23:26:32.034Z,10.44
2022-11-16T23:29:00.279Z,10.14
2022-11-16T23:31:29.429Z,9.86
2022-11-16T23:33:57.175Z,10.12
2022-11-16T23:36:24.925Z,10.32
2022-11-16T23:38:52.621Z,10.27
2022-11-16T23:41:37.863Z,10.35
2022-11-16T23:44:05.842Z,10.32
2022-11-16T23:46:35.389Z,10.17
2022-11-16T23:49:03.051Z,10.01
2022-11-16T23:51:30.752Z,9.86
2022-11-16T23:53:58.445Z,9.79
2022-11-16T23:56:26.337Z,10.12
2022-11-16T23:58:57.295Z,10.33
